createdAt,value
2017-10-23T00:10:51.526Z,11.80
2017-10-23T00:13:24.158Z,13.60
2017-10-23T00:15:31.420Z,11.50
2017-10-23T00:20:20.528Z,12.47
2017-10-23T00:22:31.840Z,12.63
2017-10-23T00:31:38.308Z,12.83
2017-10-23T00:33:42.945Z,14.77
2017-10-23T00:35:44.192Z,12.70
2017-10-23T00:43:28.494Z,13.60
2017-10-23T00:50:57.488Z,15.87
2017-10-23T00:55:40.534Z,14.07
2017-10-23T01:03:13.987Z,16.00
2017-10-23T01:05:24.398Z,15.53
2017-10-23T01:53:07.489Z,18.40
2017-10-23T01:55:15.123Z,19.00
2017-10-23T01:59:43.710Z,17.93
2017-10-23T02:01:44.697Z,18.50
2017-10-23T02:03:45.690Z,19.07
2017-10-23T02:10:43.529Z,15.33
2017-10-23T02:20:21.883Z,16.07
2017-10-23T02:22:23.997Z,16.97
2017-10-23T02:24:25.255Z,19.03
2017-10-23T02:26:26.295Z,15.10
2017-10-23T02:30:44.808Z,16.17
2017-10-23T02:34:53.631Z,16.00
2017-10-23T02:37:03.744Z,16.53
2017-10-23T02:39:08.301Z,15.60
2017-10-23T02:41:22.595Z,16.60
2017-10-23T02:43:33.964Z,18.50
2017-10-23T02:45:59.889Z,16.43
2017-10-23T02:55:33.129Z,16.77
2017-10-23T03:00:01.898Z,16.80
2017-10-23T03:17:19.875Z,22.10
2017-10-23T03:21:50.583Z,20.07
2017-10-23T03:23:51.619Z,19.50
2017-10-23T03:28:20.512Z,20.20
2017-10-23T03:30:21.540Z,14.67
2017-10-23T03:35:01.063Z,18.70
2017-10-23T03:44:46.671Z,17.20
2017-10-23T03:46:47.654Z,18.60
2017-10-23T03:49:03.659Z,18.23
2017-10-23T03:51:04.665Z,17.60
2017-10-23T03:53:05.634Z,16.70
2017-10-23T03:57:34.710Z,17.30
2017-10-23T03:59:55.419Z,16.30
2017-10-23T04:02:02.975Z,16.57
2017-10-23T04:04:33.893Z,18.50
2017-10-23T04:06:34.901Z,16.93
2017-10-23T04:08:35.901Z,17.37
2017-10-23T04:13:04.594Z,17.10
2017-10-23T04:15:05.670Z,16.83
2017-10-23T04:17:06.681Z,17.60
2017-10-23T04:19:25.868Z,19.73
2017-10-23T04:21:26.820Z,17.37
2017-10-23T04:23:27.833Z,18.87
2017-10-23T04:25:36.557Z,18.17
2017-10-23T04:27:41.084Z,18.97
2017-10-23T04:29:42.128Z,18.47
2017-10-23T04:34:11.981Z,18.73
2017-10-23T04:36:12.986Z,17.57
2017-10-23T04:38:18.905Z,20.10
2017-10-23T04:40:26.118Z,20.20
2017-10-23T04:42:27.164Z,20.60
2017-10-23T04:47:49.383Z,21.53
2017-10-23T04:49:50.395Z,18.63
2017-10-23T04:51:51.370Z,18.57
2017-10-23T04:56:21.018Z,21.80
2017-10-23T05:00:49.664Z,19.33
2017-10-23T05:03:14.084Z,21.57
2017-10-23T05:34:18.763Z,18.37
2017-10-23T05:36:27.486Z,21.50
2017-10-23T05:38:29.774Z,20.33
2017-10-23T05:40:30.868Z,24.40
2017-10-23T05:42:31.853Z,23.60
2017-10-23T05:44:32.841Z,22.63
2017-10-23T05:49:08.587Z,22.90
2017-10-23T05:51:10.466Z,23.63
2017-10-23T05:58:49.650Z,22.17
2017-10-23T06:01:19.811Z,23.70
2017-10-23T06:08:25.481Z,19.60
2017-10-23T06:10:28.727Z,19.83
2017-10-23T06:15:08.821Z,20.67
2017-10-23T06:19:37.862Z,20.17
2017-10-23T06:22:08.851Z,20.13
2017-10-23T06:24:09.918Z,20.27
2017-10-23T06:26:10.923Z,22.10
2017-10-23T06:30:49.556Z,19.27
2017-10-23T06:32:50.546Z,22.53
2017-10-23T06:34:51.585Z,22.40
2017-10-23T06:39:31.189Z,20.50
2017-10-23T06:41:32.205Z,20.27
2017-10-23T06:43:33.210Z,21.47
2017-10-23T06:45:34.325Z,20.27
2017-10-23T06:50:06.798Z,20.70
2017-10-23T06:54:18.700Z,20.63
2017-10-23T06:56:19.664Z,20.40
2017-10-23T06:58:20.670Z,20.73
2017-10-23T07:00:21.737Z,20.80
2017-10-23T07:02:30.288Z,19.30
2017-10-23T07:04:31.417Z,19.57
2017-10-23T07:06:32.423Z,18.53
2017-10-23T07:08:33.452Z,19.27
2017-10-23T07:10:34.420Z,20.30
2017-10-23T07:15:13.350Z,19.20
2017-10-23T07:17:14.358Z,20.13
2017-10-23T07:19:22.125Z,19.60
2017-10-23T07:24:14.982Z,19.77
2017-10-23T07:26:15.988Z,21.97
2017-10-23T07:30:44.821Z,18.90
2017-10-23T07:32:46.078Z,19.27
2017-10-23T07:34:49.508Z,19.43
2017-10-23T07:36:50.745Z,18.47
2017-10-23T07:39:10.941Z,19.93
2017-10-23T07:41:11.970Z,19.30
2017-10-23T07:43:12.930Z,20.50
2017-10-23T07:45:34.006Z,20.10
2017-10-23T07:47:43.218Z,20.53
2017-10-23T07:49:44.208Z,18.90
2017-10-23T07:51:45.208Z,18.27
2017-10-23T07:53:46.167Z,17.50
2017-10-23T07:58:18.990Z,19.33
2017-10-23T08:00:20.183Z,18.30
2017-10-23T08:05:15.424Z,20.77
2017-10-23T08:07:16.506Z,18.20
2017-10-23T08:17:09.977Z,19.97
2017-10-23T08:21:38.970Z,18.20
2017-10-23T08:26:08.272Z,16.17
2017-10-23T08:28:24.533Z,16.57
2017-10-23T08:53:52.925Z,12.13
2017-10-23T08:55:54.684Z,12.10
2017-10-23T08:57:55.717Z,12.10
2017-10-23T08:59:57.557Z,11.03
2017-10-23T09:01:58.589Z,12.17
2017-10-23T09:03:59.706Z,10.47
2017-10-23T09:06:01.120Z,11.77
2017-10-23T09:08:03.092Z,11.70
2017-10-23T09:10:04.390Z,12.80
2017-10-23T09:12:05.416Z,12.33
2017-10-23T09:14:07.132Z,10.80
2017-10-23T09:16:08.623Z,9.40
2017-10-23T09:18:09.961Z,9.90
2017-10-23T09:20:10.991Z,10.57
2017-10-23T09:22:12.005Z,9.83
2017-10-23T09:24:13.166Z,10.30
2017-10-23T09:26:14.527Z,9.20
2017-10-23T09:28:15.965Z,9.97
2017-10-23T09:30:17.029Z,10.30
2017-10-23T09:32:18.051Z,9.60
2017-10-23T09:34:19.312Z,9.63
2017-10-23T09:36:21.110Z,12.07
2017-10-23T09:38:22.169Z,10.40
2017-10-23T09:40:23.186Z,10.10
2017-10-23T09:42:24.211Z,9.20
2017-10-23T09:44:25.495Z,8.60
2017-10-23T09:46:26.536Z,8.47
2017-10-23T09:48:27.800Z,9.47
2017-10-23T09:50:28.866Z,8.73
2017-10-23T09:52:29.846Z,9.50
2017-10-23T09:54:31.039Z,8.90
2017-10-23T09:56:32.044Z,8.27
2017-10-23T09:58:33.064Z,7.80
2017-10-23T10:00:34.078Z,8.27
2017-10-23T10:02:35.102Z,8.13
2017-10-23T10:04:36.909Z,7.90
2017-10-23T10:06:37.929Z,6.87
2017-10-23T10:08:38.963Z,7.90
2017-10-23T10:10:40.003Z,8.93
2017-10-23T10:12:41.842Z,7.60
2017-10-23T10:14:42.937Z,7.03
2017-10-23T10:16:43.907Z,7.73
2017-10-23T10:18:44.970Z,7.60
2017-10-23T10:20:46.020Z,6.37
2017-10-23T10:22:47.065Z,7.07
2017-10-23T10:24:48.141Z,7.00
2017-10-23T10:26:49.288Z,6.80
2017-10-23T10:28:50.364Z,6.57
2017-10-23T10:30:51.379Z,6.13
2017-10-23T10:32:52.461Z,6.77
2017-10-23T10:34:53.456Z,6.80
2017-10-23T10:36:54.587Z,7.20
2017-10-23T10:38:55.866Z,7.30
2017-10-23T10:40:56.930Z,6.80
2017-10-23T10:42:57.932Z,7.03
2017-10-23T10:44:58.905Z,6.50
2017-10-23T10:46:59.901Z,7.63
2017-10-23T10:49:01.734Z,7.67
2017-10-23T10:51:02.809Z,8.77
2017-10-23T10:53:03.800Z,7.67
2017-10-23T10:55:04.954Z,7.03
2017-10-23T10:57:05.942Z,7.40
2017-10-23T10:59:07.045Z,6.60
2017-10-23T11:01:08.044Z,7.33
2017-10-23T11:03:09.947Z,7.03
2017-10-23T11:05:11.117Z,7.60
2017-10-23T11:07:12.280Z,8.00
2017-10-23T11:09:13.323Z,8.10
2017-10-23T11:11:14.465Z,8.07
2017-10-23T11:13:15.503Z,9.07
2017-10-23T11:15:16.498Z,7.77
2017-10-23T11:17:17.472Z,8.47
2017-10-23T11:19:18.471Z,8.60
2017-10-23T11:21:19.457Z,7.73
2017-10-23T11:23:20.484Z,8.33
2017-10-23T11:25:21.717Z,8.43
2017-10-23T11:27:22.834Z,9.07
2017-10-23T11:29:23.864Z,7.27
2017-10-23T11:31:24.878Z,8.33
2017-10-23T11:33:26.057Z,8.63
2017-10-23T11:35:27.146Z,8.13
2017-10-23T11:37:28.140Z,10.33
2017-10-23T11:39:29.345Z,9.00
2017-10-23T11:41:30.364Z,9.00
2017-10-23T11:43:31.405Z,8.67
2017-10-23T11:45:32.429Z,8.50
2017-10-23T11:47:33.397Z,7.70
2017-10-23T11:49:34.452Z,7.80
2017-10-23T11:51:35.662Z,7.73
2017-10-23T11:53:36.701Z,7.80
2017-10-23T11:55:37.981Z,7.80
2017-10-23T11:57:39.051Z,7.83
2017-10-23T11:59:40.269Z,7.87
2017-10-23T12:01:41.340Z,9.90
2017-10-23T12:03:42.300Z,9.30
2017-10-23T12:05:43.568Z,9.30
2017-10-23T12:07:44.629Z,7.90
2017-10-23T12:09:45.638Z,8.90
2017-10-23T12:11:46.634Z,7.80
2017-10-23T12:13:47.705Z,7.77
2017-10-23T12:15:48.942Z,8.83
2017-10-23T12:17:49.995Z,10.10
2017-10-23T12:19:51.012Z,9.03
2017-10-23T12:21:52.001Z,8.30
2017-10-23T12:23:57.009Z,9.80
2017-10-23T12:25:58.022Z,8.73
2017-10-23T12:33:20.176Z,10.57
2017-10-23T12:37:58.890Z,9.87
2017-10-23T12:47:33.344Z,11.03
2017-10-23T12:49:34.315Z,12.00
2017-10-23T12:51:50.012Z,12.17
2017-10-23T13:19:35.151Z,7.70
2017-10-23T13:21:36.149Z,8.00
2017-10-23T15:22:39.660Z,11.10
2017-10-23T15:24:59.038Z,12.17
2017-10-23T15:29:38.387Z,12.00
2017-10-23T15:31:59.283Z,12.40
2017-10-23T15:34:00.430Z,12.00
2017-10-23T15:36:14.638Z,13.73
2017-10-23T15:38:15.656Z,14.27
2017-10-23T15:40:16.622Z,13.70
2017-10-23T15:42:19.761Z,13.97
2017-10-23T15:44:26.042Z,12.63
2017-10-23T15:46:27.237Z,12.97
2017-10-23T15:48:30.559Z,11.80
2017-10-23T15:50:44.119Z,12.40
2017-10-23T15:52:47.535Z,12.80
2017-10-23T15:54:48.543Z,12.90
2017-10-23T15:56:57.172Z,13.40
2017-10-23T15:58:58.246Z,12.43
2017-10-23T16:01:04.959Z,12.37
2017-10-23T16:03:06.135Z,12.50
2017-10-23T16:05:18.445Z,12.60
2017-10-23T16:07:19.654Z,12.17
2017-10-23T16:09:20.638Z,11.70
2017-10-23T16:23:57.170Z,13.43
2017-10-23T16:26:09.711Z,14.10
2017-10-23T16:28:21.937Z,13.37
2017-10-23T16:35:35.104Z,14.30
2017-10-23T16:53:24.519Z,15.67
2017-10-23T16:58:01.896Z,18.43
2017-10-23T17:00:02.916Z,17.50
2017-10-23T17:04:47.042Z,17.83
2017-10-23T17:06:48.051Z,16.30
2017-10-23T17:08:49.175Z,15.57
2017-10-23T17:11:03.547Z,15.33
2017-10-23T17:23:58.791Z,15.80
2017-10-23T17:26:00.049Z,16.17
2017-10-23T17:30:39.973Z,15.97
2017-10-23T17:32:41.062Z,21.33
2017-10-23T17:34:42.082Z,19.23
2017-10-23T17:54:59.131Z,16.90
2017-10-23T17:57:23.795Z,17.37
2017-10-23T18:04:42.028Z,16.70
2017-10-23T18:35:10.700Z,8.90
2017-10-23T18:40:08.487Z,9.40
2017-10-23T18:44:48.289Z,11.20
2017-10-23T18:46:50.671Z,11.30
2017-10-23T18:48:51.896Z,12.57
2017-10-23T18:50:53.085Z,11.30
2017-10-23T18:52:54.191Z,11.20
2017-10-23T19:00:24.690Z,9.80
2017-10-23T19:08:05.228Z,10.43
2017-10-23T19:10:06.705Z,10.87
2017-10-23T19:12:07.881Z,11.20
2017-10-23T19:14:09.102Z,12.60
2017-10-23T19:16:10.588Z,12.83
2017-10-23T19:18:24.821Z,13.47
2017-10-23T19:25:42.331Z,12.13
2017-10-23T19:28:08.098Z,13.43
2017-10-23T19:30:09.327Z,14.77
2017-10-23T19:32:10.739Z,12.53
2017-10-23T19:36:53.643Z,11.67
2017-10-23T19:39:05.041Z,13.90
2017-10-23T19:48:58.461Z,12.30
2017-10-23T19:50:59.662Z,12.70
2017-10-23T19:53:00.663Z,14.13
2017-10-23T19:55:01.771Z,11.70
2017-10-23T20:04:57.527Z,10.70
2017-10-23T20:07:08.756Z,12.23
2017-10-23T20:09:10.594Z,12.13
2017-10-23T20:11:11.708Z,15.52
2017-10-23T20:18:41.081Z,12.50
2017-10-23T20:23:19.517Z,11.80
2017-10-23T20:25:21.112Z,11.90
2017-10-23T20:30:10.938Z,11.60
2017-10-23T20:37:37.207Z,12.97
2017-10-23T20:42:33.352Z,11.53
2017-10-23T20:55:22.839Z,9.50
2017-10-23T20:57:34.353Z,11.80
2017-10-23T21:02:12.866Z,11.20
2017-10-23T21:04:14.263Z,11.40
2017-10-23T21:08:57.219Z,9.60
2017-10-23T21:15:53.205Z,10.60
2017-10-23T21:17:55.517Z,10.57
2017-10-23T21:22:24.891Z,9.17
2017-10-23T21:24:41.103Z,10.57
2017-10-23T21:26:42.103Z,9.20
2017-10-23T21:39:06.854Z,9.40
2017-10-23T21:41:07.820Z,9.20
2017-10-23T21:43:28.303Z,9.67
2017-10-23T21:48:09.050Z,8.50
2017-10-23T21:50:10.290Z,7.87
2017-10-23T21:52:25.386Z,8.00
2017-10-23T21:54:26.417Z,8.00
2017-10-23T22:01:51.989Z,7.70
2017-10-23T22:06:20.513Z,7.47
2017-10-23T22:08:21.492Z,7.37
2017-10-23T22:10:40.042Z,7.53
2017-10-23T22:12:41.029Z,6.43
2017-10-23T22:14:50.594Z,8.20
2017-10-23T22:21:48.056Z,8.35
2017-10-23T22:26:19.958Z,7.83
2017-10-23T22:28:45.393Z,7.17
2017-10-23T22:30:52.742Z,7.37
2017-10-23T22:42:51.140Z,6.40
2017-10-23T22:44:52.116Z,7.33
2017-10-23T22:47:01.735Z,6.50
2017-10-23T22:49:02.755Z,7.90
2017-10-23T22:51:03.789Z,6.60
2017-10-23T22:53:04.950Z,6.23
2017-10-23T23:00:11.596Z,5.37
2017-10-23T23:02:12.642Z,5.87
2017-10-23T23:06:41.437Z,4.80
2017-10-23T23:08:42.479Z,4.90
2017-10-23T23:10:43.472Z,4.73
2017-10-23T23:12:58.911Z,5.13
2017-10-23T23:14:59.906Z,4.93
2017-10-23T23:25:05.842Z,4.30
2017-10-23T23:32:12.946Z,4.23
2017-10-23T23:41:48.267Z,5.00
2017-10-23T23:43:49.398Z,4.30
2017-10-23T23:45:50.542Z,4.30
2017-10-23T23:47:54.980Z,4.63
2017-10-23T23:54:51.618Z,4.20
2017-10-23T23:57:07.475Z,4.87
